Time;durP1;ratioP1;P1;durP2;ratioP2;P2;SDS_P1;SDS_P2;PMS_P1;PMS_P2;Temp;Humidity;BMP_temperature;BMP_pressure;BME280_temperature;BME280_humidity;BME280_pressure;Samples;Min_cycle;Max_cycle;Signal;HPM_P1;HPM_P2
2023/07/15 00:00:39;;;;;;;6.03;4.67;;;;;;;23.96;100.00;101451.63;2082004;28;20268;-64
2023/07/15 00:01:40;;;;;;;6.83;4.20;;;;;;;24.04;100.00;101461.97;2081220;28;20173;-65
2023/07/15 00:02:42;;;;;;;8.27;4.40;;;;;;;24.04;100.00;101464.03;2081849;28;20188;-65
2023/07/15 00:03:42;;;;;;;5.17;4.37;;;;;;;24.02;100.00;101461.72;2073825;28;20192;-65
2023/07/15 00:04:43;;;;;;;9.43;4.73;;;;;;;23.98;100.00;101458.34;2081177;28;20196;-64
2023/07/15 00:05:43;;;;;;;7.00;4.57;;;;;;;23.78;100.00;101430.13;2082058;28;20197;-65
2023/07/15 00:06:44;;;;;;;6.17;4.50;;;;;;;23.97;100.00;101458.84;2081969;28;20226;-65
2023/07/15 00:07:45;;;;;;;7.40;4.93;;;;;;;23.96;100.00;101458.06;2082029;28;20651;-65
2023/07/15 00:08:46;;;;;;;6.40;4.40;;;;;;;23.94;100.00;101459.84;2081918;28;20189;-65
2023/07/15 00:09:47;;;;;;;7.13;4.50;;;;;;;23.90;100.00;101457.25;2081376;28;20199;-65
2023/07/15 00:10:47;;;;;;;4.83;4.37;;;;;;;23.90;100.00;101454.41;2081825;28;20242;-65
2023/07/15 00:11:48;;;;;;;5.80;4.23;;;;;;;23.86;100.00;101461.56;2081603;28;20201;-64
2023/07/15 00:12:48;;;;;;;4.43;3.90;;;;;;;23.77;100.00;101459.72;2081899;28;20650;-65
2023/07/15 00:13:48;;;;;;;6.10;4.50;;;;;;;23.71;100.00;101460.94;2082189;28;20575;-65
2023/07/15 00:14:49;;;;;;;6.63;4.60;;;;;;;23.52;100.00;101443.56;2087037;28;20204;-65
2023/07/15 00:15:53;;;;;;;6.70;4.30;;;;;;;23.62;100.00;101456.25;2081998;28;20205;-65
2023/07/15 00:16:53;;;;;;;5.83;4.20;;;;;;;23.60;100.00;101467.28;2081733;28;20180;-64
2023/07/15 00:17:54;;;;;;;6.77;4.30;;;;;;;23.58;100.00;101455.69;2081884;28;20654;-65
2023/07/15 00:18:55;;;;;;;6.77;4.37;;;;;;;23.26;100.00;101410.94;2081712;28;20256;-65
2023/07/15 00:19:55;;;;;;;5.43;4.63;;;;;;;23.57;100.00;101464.69;2081849;28;20177;-65
2023/07/15 00:20:56;;;;;;;7.67;4.27;;;;;;;23.56;100.00;101463.13;2081839;28;20181;-64
2023/07/15 00:21:56;;;;;;;5.83;4.40;;;;;;;23.50;100.00;101465.16;2081788;28;20181;-64
2023/07/15 00:22:56;;;;;;;6.67;4.00;;;;;;;23.44;100.00;101464.34;2081721;28;20193;-65
2023/07/15 00:23:58;;;;;;;5.67;4.47;;;;;;;23.42;100.00;101456.34;2081031;28;20647;-64
2023/07/15 00:24:59;;;;;;;5.53;4.33;;;;;;;23.41;100.00;101466.09;2081826;28;20254;-65
2023/07/15 00:25:59;;;;;;;6.23;4.73;;;;;;;23.42;100.00;101466.88;2081774;28;20193;-64
2023/07/15 00:26:59;;;;;;;7.37;4.20;;;;;;;23.36;100.00;101461.19;2081891;28;20173;-64
2023/07/15 00:28:01;;;;;;;6.13;4.60;;;;;;;23.35;100.00;101470.94;2081932;28;20215;-65
2023/07/15 00:29:03;;;;;;;7.50;4.57;;;;;;;23.36;100.00;101463.22;2081685;28;20255;-65
2023/07/15 00:30:04;;;;;;;5.20;4.33;;;;;;;23.35;100.00;101468.13;2082050;28;20177;-64
2023/07/15 00:31:12;;;;;;;5.90;4.40;;;;;;;23.34;100.00;101480.69;2080761;28;20185;-64
2023/07/15 00:32:17;;;;;;;5.90;4.70;;;;;;;23.30;100.00;101463.19;2073986;28;20674;-64
2023/07/15 00:33:19;;;;;;;5.23;4.53;;;;;;;23.24;100.00;101462.34;2080941;28;20251;-65
2023/07/15 00:34:20;;;;;;;6.73;4.77;;;;;;;23.24;100.00;101467.22;2081524;28;20675;-65
2023/07/15 00:35:25;;;;;;;8.83;4.70;;;;;;;23.24;100.00;101461.56;2081846;28;20184;-64
2023/07/15 00:36:26;;;;;;;7.23;4.67;;;;;;;23.23;100.00;101465.69;2081706;28;20731;-64
2023/07/15 00:37:28;;;;;;;7.00;4.50;;;;;;;23.20;100.00;101458.19;2081351;28;20234;-64
2023/07/15 00:38:28;;;;;;;7.97;5.00;;;;;;;23.21;100.00;101462.56;2081600;28;20733;-65
2023/07/15 00:39:29;;;;;;;5.30;4.73;;;;;;;23.24;100.00;101455.91;2081505;28;20623;-65
2023/07/15 00:40:36;;;;;;;5.90;4.70;;;;;;;23.25;100.00;101460.28;2081818;28;20260;-65
2023/07/15 00:41:37;;;;;;;5.60;4.73;;;;;;;23.27;100.00;101463.38;2081264;28;20172;-65
2023/07/15 00:42:52;;;;;;;6.20;4.93;;;;;;;23.31;100.00;101449.81;2080913;28;20177;-65
2023/07/15 00:43:56;;;;;;;7.43;4.43;;;;;;;23.30;100.00;101456.75;2073513;28;20697;-65
2023/07/15 00:44:56;;;;;;;5.40;4.70;;;;;;;23.32;100.00;101466.28;2081588;28;20229;-64
2023/07/15 00:46:18;;;;;;;5.57;4.50;;;;;;;23.33;100.00;101458.56;2081626;28;20643;-65
2023/07/15 00:47:45;;;;;;;5.50;4.37;;;;;;;22.73;100.00;101356.97;2073864;28;20182;-66
2023/07/15 00:48:57;;;;;;;5.83;4.07;;;;;;;23.33;100.00;101472.72;2080952;28;20690;-64
2023/07/15 00:49:58;;;;;;;6.30;4.40;;;;;;;23.31;100.00;101461.91;2081734;28;20579;-65
2023/07/15 00:50:58;;;;;;;5.23;4.50;;;;;;;23.30;100.00;101457.53;2081276;28;20169;-65
2023/07/15 00:52:10;;;;;;;5.43;4.03;;;;;;;22.37;100.00;101321.63;2080938;28;20286;-65
2023/07/15 00:53:10;;;;;;;5.87;4.10;;;;;;;23.16;100.00;101457.59;2081436;28;20170;-65
2023/07/15 00:54:13;;;;;;;7.63;4.53;;;;;;;23.14;100.00;101462.97;2081257;28;20292;-65
2023/07/15 00:55:14;;;;;;;7.97;4.30;;;;;;;23.10;100.00;101459.59;2081988;28;20177;-64
2023/07/15 00:56:15;;;;;;;5.50;4.60;;;;;;;23.07;100.00;101460.59;2081631;28;20250;-64
2023/07/15 00:57:16;;;;;;;7.73;4.47;;;;;;;23.04;100.00;101465.22;2081524;28;20765;-64
2023/07/15 00:58:17;;;;;;;5.80;4.67;;;;;;;22.51;100.00;101385.75;2081677;28;20196;-64
2023/07/15 00:59:17;;;;;;;6.83;4.67;;;;;;;23.01;100.00;101465.41;2081646;28;20272;-65
2023/07/15 01:00:18;;;;;;;6.37;4.90;;;;;;;22.98;100.00;101467.19;2081327;28;20199;-64
2023/07/15 01:01:18;;;;;;;5.80;4.70;;;;;;;22.64;100.00;101422.09;2081231;28;20197;-64
2023/07/15 01:02:19;;;;;;;9.70;5.30;;;;;;;22.81;100.00;101468.25;2081251;28;20173;-65
2023/07/15 01:03:20;;;;;;;5.27;4.77;;;;;;;22.75;100.00;101467.44;2081532;28;20192;-65
2023/07/15 01:04:21;;;;;;;5.50;4.70;;;;;;;22.75;100.00;101467.44;2081397;28;20182;-64
2023/07/15 01:05:21;;;;;;;7.00;5.20;;;;;;;22.73;100.00;101467.16;2081460;28;20188;-64
2023/07/15 01:06:22;;;;;;;7.07;5.10;;;;;;;22.73;100.00;101462.28;2081020;28;20189;-64
2023/07/15 01:07:22;;;;;;;5.60;4.90;;;;;;;22.72;100.00;101459.97;2081275;28;20246;-65
2023/07/15 01:08:23;;;;;;;5.07;4.57;;;;;;;22.24;100.00;101389.00;2081359;28;20193;-65
2023/07/15 01:09:24;;;;;;;5.50;4.70;;;;;;;22.65;100.00;101458.34;2081396;28;20193;-65
2023/07/15 01:10:25;;;;;;;5.90;4.60;;;;;;;22.66;100.00;101468.34;2081377;28;20192;-65
2023/07/15 01:11:27;;;;;;;4.97;4.40;;;;;;;22.65;100.00;101488.63;2080226;28;20276;-65
2023/07/15 01:12:28;;;;;;;6.90;4.77;;;;;;;22.63;100.00;101462.94;2080717;28;20755;-64
2023/07/15 01:13:28;;;;;;;5.10;4.60;;;;;;;22.62;100.00;101470.63;2073537;28;20244;-64
2023/07/15 01:14:29;;;;;;;6.57;5.33;;;;;;;22.65;100.00;101471.69;2080691;28;20228;-64
2023/07/15 01:15:29;;;;;;;6.03;4.90;;;;;;;22.62;100.00;101476.28;2081351;28;20193;-64
2023/07/15 01:16:30;;;;;;;8.67;5.60;;;;;;;22.65;100.00;101474.50;2081236;28;20584;-64
2023/07/15 01:17:30;;;;;;;6.57;5.00;;;;;;;22.68;100.00;101479.19;2081605;28;20607;-65
2023/07/15 01:18:31;;;;;;;7.10;4.60;;;;;;;22.67;100.00;101486.84;2081387;28;20268;-65
2023/07/15 01:19:32;;;;;;;6.23;4.50;;;;;;;22.62;100.00;101473.44;2081565;28;20569;-64
2023/07/15 01:20:34;;;;;;;4.53;4.13;;;;;;;22.70;100.00;101477.41;2080767;28;20655;-66
2023/07/15 01:21:35;;;;;;;5.20;4.70;;;;;;;22.66;100.00;101473.22;2080755;28;20177;-65
2023/07/15 01:22:36;;;;;;;5.23;4.70;;;;;;;22.70;100.00;101483.06;2081051;28;20266;-65
2023/07/15 01:23:38;;;;;;;5.67;4.67;;;;;;;22.71;100.00;101489.47;2081364;28;20193;-64
2023/07/15 01:24:39;;;;;;;7.87;4.93;;;;;;;22.70;100.00;101490.75;2081052;28;20216;-65
2023/07/15 01:25:39;;;;;;;6.20;4.80;;;;;;;22.70;100.00;101491.53;2081486;28;20289;-64
2023/07/15 01:26:40;;;;;;;5.03;4.50;;;;;;;22.69;100.00;101492.81;2081350;28;20315;-64
2023/07/15 01:27:40;;;;;;;5.00;4.27;;;;;;;22.72;100.00;101493.88;2081327;28;20192;-65
2023/07/15 01:28:41;;;;;;;7.23;5.03;;;;;;;22.62;100.00;101467.03;2081199;28;20188;-64
2023/07/15 01:29:41;;;;;;;5.97;4.77;;;;;;;22.70;100.00;101480.22;2081120;28;20231;-64
2023/07/15 01:30:41;;;;;;;7.03;4.63;;;;;;;22.71;100.00;101481.00;2081337;28;20255;-64
2023/07/15 01:31:42;;;;;;;5.97;4.50;;;;;;;22.70;100.00;101485.88;2072823;28;20296;-64
2023/07/15 01:32:42;;;;;;;6.60;4.57;;;;;;;22.65;100.00;101483.75;2080035;28;20188;-65
2023/07/15 01:33:43;;;;;;;7.57;5.00;;;;;;;22.56;100.00;101469.78;2081288;28;20219;-65
2023/07/15 01:34:44;;;;;;;7.83;4.80;;;;;;;22.64;100.00;101478.59;2080782;28;20238;-65
2023/07/15 01:35:48;;;;;;;7.10;4.50;;;;;;;22.58;100.00;101483.41;2081158;28;20563;-64
2023/07/15 01:36:49;;;;;;;6.10;4.80;;;;;;;22.54;100.00;101480.81;2080377;28;20275;-65
2023/07/15 01:37:49;;;;;;;7.37;4.73;;;;;;;22.60;100.00;101489.34;2080666;28;20188;-65
2023/07/15 01:38:50;;;;;;;6.57;4.80;;;;;;;22.59;100.00;101485.75;2074170;28;20244;-64
2023/07/15 01:39:50;;;;;;;7.13;4.40;;;;;;;22.59;100.00;101479.31;2081122;28;20319;-65
2023/07/15 01:40:51;;;;;;;7.53;4.80;;;;;;;22.60;100.00;101478.03;2081413;28;20180;-65
2023/07/15 01:41:51;;;;;;;7.43;4.67;;;;;;;22.51;100.00;101466.91;2073744;28;20240;-65
2023/07/15 01:42:52;;;;;;;7.83;4.93;;;;;;;22.61;100.00;101483.19;2078868;28;20241;-65
2023/07/15 01:43:52;;;;;;;5.00;4.50;;;;;;;22.63;100.00;101491.19;2081069;28;20235;-64
2023/07/15 01:44:54;;;;;;;6.10;4.60;;;;;;;22.61;100.00;101486.03;2080777;28;20279;-65
2023/07/15 01:45:54;;;;;;;7.33;4.50;;;;;;;22.56;100.00;101491.63;2081084;28;20181;-65
2023/07/15 01:46:54;;;;;;;5.40;4.77;;;;;;;22.58;100.00;101495.50;2081151;28;20177;-65
2023/07/15 01:47:55;;;;;;;7.30;4.60;;;;;;;22.57;100.00;101496.75;2088781;28;20603;-65
2023/07/15 01:48:59;;;;;;;9.27;5.70;;;;;;;22.58;100.00;101501.16;2080223;28;20563;-65
2023/07/15 01:49:59;;;;;;;8.53;4.80;;;;;;;22.56;100.00;101492.38;2072491;28;20178;-64
2023/07/15 01:51:00;;;;;;;7.70;5.30;;;;;;;22.50;100.00;101490.75;2079863;28;20435;-64
2023/07/15 01:52:00;;;;;;;8.93;4.87;;;;;;;22.50;100.00;101493.56;2081137;28;20216;-65
2023/07/15 01:53:01;;;;;;;9.10;4.77;;;;;;;22.48;100.00;101490.47;2081033;28;20189;-65
2023/07/15 01:54:02;;;;;;;7.47;4.70;;;;;;;22.40;100.00;101492.13;2081137;28;20197;-65
2023/07/15 01:55:02;;;;;;;7.83;4.40;;;;;;;22.44;100.00;101492.69;2081114;28;20212;-65
2023/07/15 01:56:03;;;;;;;5.00;4.47;;;;;;;22.43;100.00;101502.44;2081001;28;20204;-65
2023/07/15 01:57:03;;;;;;;7.87;4.87;;;;;;;22.44;100.00;101501.16;2081113;28;20204;-65
2023/07/15 01:58:04;;;;;;;7.20;4.67;;;;;;;22.44;100.00;101501.16;2081120;28;20176;-65
2023/07/15 01:59:04;;;;;;;7.30;5.33;;;;;;;22.39;100.00;101493.41;2081169;28;20271;-64
2023/07/15 02:00:05;;;;;;;7.33;4.77;;;;;;;22.47;100.00;101500.97;2081006;28;20192;-65
2023/07/15 02:01:06;;;;;;;6.80;4.70;;;;;;;22.44;100.00;101493.50;2080925;28;20675;-64
2023/07/15 02:02:06;;;;;;;7.27;5.10;;;;;;;22.43;100.00;101499.63;2081003;28;20259;-64
2023/07/15 02:03:06;;;;;;;6.07;4.87;;;;;;;22.39;100.00;101511.13;2080855;28;20257;-64
2023/07/15 02:04:07;;;;;;;6.40;4.80;;;;;;;22.29;100.00;101481.47;2080163;28;20184;-64
2023/07/15 02:05:07;;;;;;;6.13;4.73;;;;;;;22.35;100.00;101504.13;2080795;28;20176;-65
2023/07/15 02:06:08;;;;;;;5.27;4.77;;;;;;;22.22;100.00;101490.34;2080895;28;20673;-65
2023/07/15 02:07:08;;;;;;;5.83;4.70;;;;;;;22.30;100.00;101516.91;2081147;28;20247;-65
2023/07/15 02:08:09;;;;;;;8.63;4.90;;;;;;;22.27;100.00;101494.53;2081195;28;20229;-65
2023/07/15 02:09:09;;;;;;;7.20;5.93;;;;;;;22.28;100.00;101501.72;2080941;28;20393;-65
2023/07/15 02:10:09;;;;;;;8.63;4.87;;;;;;;22.27;100.00;101500.16;2080844;28;20268;-64
2023/07/15 02:11:10;;;;;;;8.37;5.30;;;;;;;22.28;100.00;101499.69;2080635;28;20471;-65
2023/07/15 02:12:11;;;;;;;9.17;5.07;;;;;;;21.70;100.00;101405.94;2080609;28;20687;-65
2023/07/15 02:13:11;;;;;;;6.77;4.97;;;;;;;22.28;100.00;101508.16;2080742;28;20238;-65
2023/07/15 02:14:12;;;;;;;7.73;5.10;;;;;;;22.30;100.00;101508.44;2080768;28;20212;-64
2023/07/15 02:15:12;;;;;;;5.70;4.70;;;;;;;22.28;100.00;101508.16;2073657;28;20181;-65
2023/07/15 02:16:13;;;;;;;12.13;5.40;;;;;;;21.90;100.00;101466.00;2080474;28;20677;-65
2023/07/15 02:17:13;;;;;;;8.23;4.87;;;;;;;22.27;100.00;101515.03;2081066;28;20196;-65
2023/07/15 02:18:15;;;;;;;8.50;4.87;;;;;;;22.25;100.00;101505.50;2080258;28;20622;-65
2023/07/15 02:19:15;;;;;;;9.83;5.20;;;;;;;22.22;100.00;101506.50;2076537;28;20696;-65
2023/07/15 02:20:16;;;;;;;7.20;4.80;;;;;;;22.24;100.00;101504.75;2076145;28;20660;-65
2023/07/15 02:21:16;;;;;;;7.60;4.77;;;;;;;22.19;100.00;101502.63;2080520;28;20185;-65
2023/07/15 02:22:16;;;;;;;7.23;5.00;;;;;;;22.15;100.00;101490.00;2080765;28;20177;-65
2023/07/15 02:23:17;;;;;;;6.23;5.10;;;;;;;22.23;100.00;101510.88;2080808;28;20178;-64
2023/07/15 02:24:17;;;;;;;7.80;5.13;;;;;;;22.24;100.00;101507.56;2080928;28;20200;-65
2023/07/15 02:25:19;;;;;;;6.13;5.00;;;;;;;22.20;100.00;101518.28;2081058;28;20255;-65
2023/07/15 02:26:20;;;;;;;5.53;4.80;;;;;;;22.17;100.00;101495.91;2080630;28;20282;-65
2023/07/15 02:27:21;;;;;;;6.17;5.00;;;;;;;22.20;100.00;101509.81;2080937;28;20259;-64
2023/07/15 02:28:26;;;;;;;8.53;4.90;;;;;;;22.18;100.00;101509.53;2080941;28;20188;-65
2023/07/15 02:29:26;;;;;;;7.10;4.60;;;;;;;22.19;100.00;101510.31;2080801;28;20458;-65
2023/07/15 02:30:27;;;;;;;6.60;5.03;;;;;;;22.18;100.00;101515.19;2080932;28;20443;-65
2023/07/15 02:31:27;;;;;;;8.00;5.27;;;;;;;21.84;100.00;101455.88;2080365;28;20260;-65
2023/07/15 02:32:35;;;;;;;7.80;5.33;;;;;;;22.18;100.00;101511.59;2080128;28;20256;-65
2023/07/15 02:33:35;;;;;;;13.40;6.30;;;;;;;22.16;100.00;101514.88;2080618;28;20230;-65
2023/07/15 02:34:36;;;;;;;6.47;4.83;;;;;;;22.06;100.00;101492.94;2081126;28;20235;-65
2023/07/15 02:35:39;;;;;;;6.83;4.90;;;;;;;22.15;100.00;101526.69;2080894;28;20185;-65
2023/07/15 02:36:40;;;;;;;5.33;3.93;;;;;;;22.08;100.00;101518.63;2080833;28;20737;-64
2023/07/15 02:37:43;;;;;;;5.27;4.03;;;;;;;22.05;100.00;101511.91;2080791;28;20832;-65
2023/07/15 02:38:44;;;;;;;5.93;4.30;;;;;;;21.99;100.00;101518.72;2080828;28;20569;-65
2023/07/15 02:39:44;;;;;;;8.77;4.10;;;;;;;21.84;100.00;101515.16;2080684;28;20872;-64
2023/07/15 02:40:48;;;;;;;6.83;4.63;;;;;;;21.75;100.00;101506.81;2080046;28;20204;-65
2023/07/15 02:41:50;;;;;;;7.20;4.70;;;;;;;21.67;100.00;101514.88;2079535;28;20230;-64
2023/07/15 02:42:50;;;;;;;8.77;5.03;;;;;;;21.63;100.00;101522.75;2073512;28;20949;-65
2023/07/15 02:43:51;;;;;;;6.00;5.07;;;;;;;21.23;100.00;101477.41;2080841;28;20895;-65
2023/07/15 02:44:51;;;;;;;5.87;5.27;;;;;;;21.52;100.00;101525.38;2080858;28;20229;-65
2023/07/15 02:45:52;;;;;;;7.37;5.77;;;;;;;21.38;100.00;101525.34;2080603;28;20232;-65
2023/07/15 02:46:52;;;;;;;6.73;5.57;;;;;;;21.41;100.00;101530.03;2080177;28;20193;-65
2023/07/15 02:47:53;;;;;;;6.77;5.70;;;;;;;21.10;100.00;101507.94;2080737;28;20617;-64
2023/07/15 02:48:54;;;;;;;7.60;5.60;;;;;;;21.28;100.00;101526.72;2076890;28;20194;-65
2023/07/15 02:49:54;;;;;;;6.20;5.30;;;;;;;21.28;100.00;101532.38;2075627;28;20327;-64
2023/07/15 02:50:55;;;;;;;8.00;5.27;;;;;;;21.24;100.00;101534.59;2080523;28;20177;-65
2023/07/15 02:51:55;;;;;;;5.33;4.83;;;;;;;21.19;100.00;101533.19;2080440;28;20609;-64
2023/07/15 02:52:56;;;;;;;10.00;5.60;;;;;;;21.20;100.00;101542.44;2080719;28;20200;-65
2023/07/15 02:54:01;;;;;;;7.73;5.30;;;;;;;21.20;100.00;101537.59;2080835;28;20283;-64
2023/07/15 02:55:03;;;;;;;6.97;5.07;;;;;;;21.19;100.00;101536.03;2080707;28;20259;-65
2023/07/15 02:56:03;;;;;;;7.10;5.10;;;;;;;21.22;100.00;101546.34;2080578;28;20650;-65
2023/07/15 02:57:04;;;;;;;6.93;5.10;;;;;;;21.17;100.00;101537.78;2080656;28;20599;-65
2023/07/15 02:58:05;;;;;;;5.30;4.80;;;;;;;21.23;100.00;101541.50;2080571;28;20283;-64
2023/07/15 02:59:05;;;;;;;5.80;5.20;;;;;;;21.24;100.00;101540.22;2080773;28;20306;-65
2023/07/15 03:00:15;;;;;;;5.87;5.20;;;;;;;21.26;100.00;101548.97;2080672;28;20173;-65
2023/07/15 03:01:15;;;;;;;7.03;5.13;;;;;;;21.06;100.00;101531.91;2080099;28;20244;-64
2023/07/15 03:02:15;;;;;;;5.70;5.10;;;;;;;21.23;100.00;101556.34;2080465;28;20407;-65
2023/07/15 03:03:16;;;;;;;6.77;5.30;;;;;;;21.23;100.00;101552.78;2080783;28;20204;-65
2023/07/15 03:04:17;;;;;;;6.63;5.20;;;;;;;21.25;100.00;101558.69;2072568;28;20182;-65
2023/07/15 03:05:17;;;;;;;6.67;5.30;;;;;;;20.68;100.00;101464.28;2079963;28;20196;-64
2023/07/15 03:06:18;;;;;;;7.60;5.30;;;;;;;21.26;100.00;101544.13;2082752;28;20246;-64
2023/07/15 03:07:19;;;;;;;7.30;5.67;;;;;;;21.32;100.00;101558.31;2083631;28;20188;-64
2023/07/15 03:08:20;;;;;;;7.63;5.97;;;;;;;21.31;100.00;101551.13;2083293;28;20185;-65
2023/07/15 03:09:21;;;;;;;7.97;5.20;;;;;;;21.30;100.00;101553.19;2083302;28;20188;-65
2023/07/15 03:10:22;;;;;;;8.57;5.53;;;;;;;21.37;100.00;101555.59;2083259;28;20210;-65
2023/07/15 03:11:22;;;;;;;7.60;4.93;;;;;;;21.38;100.00;101556.38;2083092;28;20207;-65
2023/07/15 03:12:23;;;;;;;6.43;5.40;;;;;;;21.34;100.00;101555.81;2083288;28;20209;-64
2023/07/15 03:13:26;;;;;;;5.80;5.13;;;;;;;21.32;100.00;101547.81;2083671;28;20193;-65
2023/07/15 03:14:26;;;;;;;8.43;5.43;;;;;;;21.40;100.00;101560.25;2083610;28;20193;-64
2023/07/15 03:15:27;;;;;;;8.37;5.50;;;;;;;21.45;100.00;101559.59;2082679;28;20185;-64
2023/07/15 03:16:27;;;;;;;6.77;4.93;;;;;;;21.49;100.00;101565.81;2083071;28;20200;-65
2023/07/15 03:17:35;;;;;;;5.97;4.87;;;;;;;21.47;100.00;101568.34;2083493;28;20264;-65
2023/07/15 03:18:35;;;;;;;7.30;5.53;;;;;;;21.49;100.00;101565.81;2083274;28;20689;-65
2023/07/15 03:19:37;;;;;;;8.80;5.10;;;;;;;20.79;100.00;101459.66;2083465;28;20654;-64
2023/07/15 03:20:37;;;;;;;7.60;5.67;;;;;;;21.46;100.00;101566.81;2083374;28;20215;-64
2023/07/15 03:21:41;;;;;;;8.53;5.40;;;;;;;21.44;100.00;101568.56;2083008;28;20176;-65
2023/07/15 03:22:41;;;;;;;14.87;5.90;;;;;;;21.50;100.00;101569.44;2083231;28;20563;-65
2023/07/15 03:23:42;;;;;;;13.73;6.13;;;;;;;21.44;100.00;101572.13;2083290;28;20215;-64
2023/07/15 03:24:42;;;;;;;9.90;5.73;;;;;;;21.42;100.00;101565.41;2083409;28;20654;-65
2023/07/15 03:25:43;;;;;;;13.13;5.47;;;;;;;21.44;100.00;101566.50;2083568;28;20169;-65
2023/07/15 03:26:44;;;;;;;7.93;4.80;;;;;;;21.48;100.00;101572.72;2083009;28;20197;-64
2023/07/15 03:27:45;;;;;;;7.23;5.60;;;;;;;21.42;100.00;101569.03;2083319;28;20254;-64
2023/07/15 03:28:46;;;;;;;10.97;5.30;;;;;;;21.47;100.00;101565.53;2083289;28;20697;-65
2023/07/15 03:29:49;;;;;;;11.53;5.20;;;;;;;21.51;100.00;101566.13;2082815;28;20256;-65
2023/07/15 03:30:50;;;;;;;10.73;5.70;;;;;;;21.51;100.00;101563.31;2083221;28;20176;-64
2023/07/15 03:31:51;;;;;;;12.87;5.70;;;;;;;21.55;100.00;101565.94;2082942;28;21225;-65
2023/07/15 03:32:56;;;;;;;11.07;5.50;;;;;;;21.51;100.00;101570.97;2083302;28;20614;-65
2023/07/15 03:33:56;;;;;;;9.40;5.37;;;;;;;21.52;100.00;101572.53;2083505;28;20632;-64
2023/07/15 03:34:57;;;;;;;9.53;5.50;;;;;;;21.56;100.00;101573.13;2083400;28;20185;-65
2023/07/15 03:35:59;;;;;;;8.20;5.23;;;;;;;21.57;100.00;101572.66;2083379;28;20211;-65
2023/07/15 03:37:00;;;;;;;7.63;5.67;;;;;;;21.42;100.00;101554.13;2090421;28;20187;-64
2023/07/15 03:38:00;;;;;;;7.50;5.20;;;;;;;21.56;100.00;101576.72;2090877;28;20516;-64
2023/07/15 03:39:01;;;;;;;8.73;5.60;;;;;;;21.54;100.00;101570.78;2083288;28;20193;-65
2023/07/15 03:40:05;;;;;;;6.87;5.43;;;;;;;21.62;100.00;101576.81;2083250;28;20165;-64
2023/07/15 03:41:06;;;;;;;6.90;4.97;;;;;;;21.51;100.00;101549.22;2075768;28;20240;-64
2023/07/15 03:42:07;;;;;;;7.63;4.93;;;;;;;21.68;100.00;101581.34;2083491;28;20460;-64
2023/07/15 03:43:08;;;;;;;11.57;5.50;;;;;;;21.69;100.00;101570.84;2075065;28;20177;-65
2023/07/15 03:44:08;;;;;;;10.17;5.10;;;;;;;21.73;100.00;101582.69;2081503;28;20963;-64
2023/07/15 03:45:09;;;;;;;8.53;5.37;;;;;;;21.76;100.00;101568.41;2083050;28;20606;-65
2023/07/15 03:46:10;;;;;;;8.70;4.53;;;;;;;21.79;100.00;101573.06;2090693;28;20694;-65
2023/07/15 03:47:10;;;;;;;8.53;5.43;;;;;;;21.73;100.00;101577.03;2082316;28;20262;-64
2023/07/15 03:48:10;;;;;;;9.87;6.10;;;;;;;21.71;100.00;101577.56;2082501;28;20185;-65
2023/07/15 03:49:11;;;;;;;7.10;5.33;;;;;;;21.76;100.00;101578.91;2083270;28;20180;-64
2023/07/15 03:50:11;;;;;;;10.30;5.57;;;;;;;21.75;100.00;101575.28;2083155;28;20261;-64
2023/07/15 03:51:12;;;;;;;9.07;5.70;;;;;;;21.73;100.00;101589.13;2083074;28;20173;-65
2023/07/15 03:52:12;;;;;;;9.33;5.77;;;;;;;21.71;100.00;101585.22;2083145;28;20215;-64
2023/07/15 03:53:13;;;;;;;8.53;5.63;;;;;;;20.94;100.00;101459.72;2083133;28;20711;-65
2023/07/15 03:54:13;;;;;;;10.17;5.90;;;;;;;21.72;100.00;101584.75;2083289;28;20185;-64
2023/07/15 03:55:14;;;;;;;9.07;5.63;;;;;;;21.76;100.00;101581.72;2083509;28;20749;-64
2023/07/15 03:56:14;;;;;;;6.80;5.27;;;;;;;21.69;100.00;101582.13;2079964;28;20575;-64
2023/07/15 03:57:14;;;;;;;6.37;5.53;;;;;;;21.68;100.00;101586.97;2076783;28;20726;-65
2023/07/15 03:58:15;;;;;;;5.57;4.90;;;;;;;21.68;100.00;101592.63;2082549;28;20625;-64
2023/07/15 03:59:15;;;;;;;8.67;5.23;;;;;;;21.68;100.00;101588.97;2082754;28;20246;-64
2023/07/15 04:00:17;;;;;;;8.87;5.50;;;;;;;21.69;100.00;101588.53;2082525;28;20184;-64
2023/07/15 04:01:17;;;;;;;11.57;5.57;;;;;;;21.73;100.00;101593.97;2083084;28;20184;-64
2023/07/15 04:02:18;;;;;;;6.47;5.30;;;;;;;21.67;100.00;101593.06;2083109;28;20267;-65
2023/07/15 04:03:18;;;;;;;8.50;5.33;;;;;;;21.69;100.00;101587.75;2083150;28;20232;-65
2023/07/15 04:04:19;;;;;;;8.37;5.37;;;;;;;21.72;100.00;101590.38;2083119;28;20199;-65
2023/07/15 04:05:19;;;;;;;8.67;5.37;;;;;;;21.76;100.00;101590.19;2090896;28;20724;-64
2023/07/15 04:06:20;;;;;;;7.87;5.40;;;;;;;21.75;100.00;101589.41;2090644;28;20772;-64
2023/07/15 04:07:20;;;;;;;10.03;5.43;;;;;;;21.79;100.00;101592.00;2083067;28;20530;-64
2023/07/15 04:08:20;;;;;;;7.50;5.13;;;;;;;21.80;100.00;101600.00;2083370;28;20861;-64
2023/07/15 04:09:21;;;;;;;8.73;5.10;;;;;;;21.01;100.00;101464.94;2083285;28;20204;-64
2023/07/15 04:10:22;;;;;;;7.60;4.60;;;;;;;21.86;100.00;101597.28;2083194;28;20185;-65
2023/07/15 04:11:22;;;;;;;7.13;4.77;;;;;;;21.73;100.00;101594.75;2083065;28;20204;-65
2023/07/15 04:12:22;;;;;;;7.07;5.30;;;;;;;21.66;100.00;101583.84;2082358;28;20388;-65
2023/07/15 04:13:23;;;;;;;9.10;4.53;;;;;;;21.68;100.00;101600.25;2083073;28;20197;-64
2023/07/15 04:14:23;;;;;;;7.40;4.97;;;;;;;21.73;100.00;101602.44;2081494;28;20177;-64
2023/07/15 04:15:24;;;;;;;6.23;5.27;;;;;;;21.72;100.00;101604.50;2083143;28;20177;-64
2023/07/15 04:16:24;;;;;;;6.87;5.10;;;;;;;21.62;100.00;101605.03;2083242;28;20575;-65
2023/07/15 04:17:24;;;;;;;6.63;4.97;;;;;;;21.61;100.00;101609.13;2081462;28;20176;-64
2023/07/15 04:18:25;;;;;;;7.73;4.90;;;;;;;21.63;100.00;101601.72;2081374;28;20277;-64
2023/07/15 04:19:25;;;;;;;7.20;4.73;;;;;;;21.56;100.00;101609.78;2081845;28;20192;-65
2023/07/15 04:20:26;;;;;;;5.97;4.80;;;;;;;21.55;100.00;101605.41;2081815;28;20586;-64
2023/07/15 04:21:27;;;;;;;7.57;4.87;;;;;;;21.56;100.00;101615.44;2081344;28;20187;-64
2023/07/15 04:22:29;;;;;;;7.53;5.10;;;;;;;21.62;100.00;101616.31;2081649;28;20197;-65
2023/07/15 04:23:29;;;;;;;7.77;4.43;;;;;;;21.48;100.00;101584.00;2081722;28;20175;-65
2023/07/15 04:24:30;;;;;;;8.37;4.70;;;;;;;21.64;100.00;101608.16;2081691;28;20181;-64
2023/07/15 04:25:30;;;;;;;7.03;4.70;;;;;;;21.67;100.00;101613.59;2082153;28;20174;-64
2023/07/15 04:26:31;;;;;;;9.00;5.30;;;;;;;21.68;100.00;101600.25;2081660;28;20670;-64
2023/07/15 04:27:32;;;;;;;6.67;5.03;;;;;;;21.69;100.00;101601.88;2081264;28;20239;-64
2023/07/15 04:28:32;;;;;;;8.07;5.07;;;;;;;21.74;100.00;101609.66;2081872;28;20200;-65
2023/07/15 04:29:33;;;;;;;6.20;4.33;;;;;;;21.23;100.00;101527.41;2081861;28;20189;-65
2023/07/15 04:30:34;;;;;;;7.93;4.90;;;;;;;21.80;100.00;101613.34;2081815;28;20185;-65
2023/07/15 04:31:36;;;;;;;7.37;5.37;;;;;;;21.84;100.00;101616.72;2081338;28;20169;-64
2023/07/15 04:32:36;;;;;;;7.77;4.90;;;;;;;21.90;100.00;101618.41;2081522;28;20173;-65
2023/07/15 04:33:37;;;;;;;5.83;5.07;;;;;;;21.95;100.00;101617.72;2081469;28;20940;-65
2023/07/15 04:34:37;;;;;;;6.97;5.10;;;;;;;21.97;100.00;101620.84;2081775;28;20227;-64
2023/07/15 04:35:38;;;;;;;7.33;5.00;;;;;;;22.01;100.00;101627.03;2081504;28;20280;-65
2023/07/15 04:36:38;;;;;;;8.03;4.77;;;;;;;22.05;100.00;101624.81;2081380;28;20223;-64
2023/07/15 04:37:38;;;;;;;5.43;4.87;;;;;;;22.11;100.00;101628.50;2081516;28;20272;-64
2023/07/15 04:38:39;;;;;;;7.33;5.10;;;;;;;22.15;100.00;101629.09;2081648;28;20242;-64
2023/07/15 04:39:39;;;;;;;6.50;5.20;;;;;;;22.20;100.00;101633.25;2081697;28;20185;-64
2023/07/15 04:40:40;;;;;;;8.10;5.13;;;;;;;22.22;100.00;101628.69;2078691;28;20174;-65
2023/07/15 04:41:40;;;;;;;7.60;4.97;;;;;;;22.23;100.00;101635.13;2080637;28;20287;-65